Time;durP1;ratioP1;P1;durP2;ratioP2;P2;SDS_P1;SDS_P2;PMS_P1;PMS_P2;Temp;Humidity;BMP_temperature;BMP_pressure;BME280_temperature;BME280_humidity;BME280_pressure;Samples;Min_cycle;Max_cycle;Signal;HPM_P1;HPM_P2
2023/11/17 00:01:33;;;;;;;;;;;19.90;67.60;;;;;;5001929;28;1272;-68
2023/11/17 00:03:58;;;;;;;;;;;19.90;67.60;;;;;;5004412;28;1387;-68
2023/11/17 00:06:25;;;;;;;;;;;19.90;67.60;;;;;;5003969;28;1507;-68
2023/11/17 00:08:54;;;;;;;;;;;19.90;67.60;;;;;;5003437;28;1371;-67
2023/11/17 00:11:20;;;;;;;;;;;19.90;67.60;;;;;;5000380;28;1420;-70
2023/11/17 00:13:45;;;;;;;;;;;19.90;67.60;;;;;;5002402;28;1977;-68
2023/11/17 00:16:11;;;;;;;;;;;19.90;67.70;;;;;;5004083;28;1528;-67
2023/11/17 00:18:36;;;;;;;;;;;19.90;67.60;;;;;;5001414;28;1358;-67
2023/11/17 00:21:03;;;;;;;;;;;19.90;67.70;;;;;;5007104;28;1344;-67
2023/11/17 00:23:29;;;;;;;;;;;19.90;67.70;;;;;;5003131;28;1582;-67
2023/11/17 00:25:55;;;;;;;;;;;19.90;67.70;;;;;;5001880;28;1486;-67
2023/11/17 00:28:23;;;;;;;;;;;19.80;67.60;;;;;;5001073;28;1390;-68
2023/11/17 00:30:49;;;;;;;;;;;19.80;67.60;;;;;;5003962;28;1483;-67
2023/11/17 00:33:14;;;;;;;;;;;19.80;67.60;;;;;;5003546;28;1898;-68
2023/11/17 00:35:40;;;;;;;;;;;19.80;67.70;;;;;;5001753;28;899;-68
2023/11/17 00:38:05;;;;;;;;;;;19.80;67.70;;;;;;5000795;28;1320;-66
2023/11/17 00:40:33;;;;;;;;;;;19.80;67.70;;;;;;5004519;28;1413;-67
2023/11/17 00:43:00;;;;;;;;;;;19.80;67.70;;;;;;5004556;28;1379;-67
2023/11/17 00:45:29;;;;;;;;;;;19.80;67.70;;;;;;5002669;28;1576;-67
2023/11/17 00:47:55;;;;;;;;;;;19.80;67.70;;;;;;5011267;28;1229;-66
2023/11/17 00:50:20;;;;;;;;;;;19.80;67.70;;;;;;5001610;28;1561;-66
2023/11/17 00:52:46;;;;;;;;;;;19.80;67.70;;;;;;5001934;28;1894;-66
2023/11/17 00:55:13;;;;;;;;;;;19.80;67.70;;;;;;5003190;28;1621;-66
2023/11/17 00:57:41;;;;;;;;;;;19.80;67.70;;;;;;5007452;28;1367;-66
2023/11/17 01:00:11;;;;;;;;;;;19.80;67.70;;;;;;5004074;28;1373;-66
2023/11/17 01:02:37;;;;;;;;;;;19.80;67.70;;;;;;5005983;28;1367;-66
2023/11/17 01:05:03;;;;;;;;;;;19.80;67.70;;;;;;5002373;28;1319;-67
2023/11/17 01:07:29;;;;;;;;;;;19.80;67.70;;;;;;5003444;28;1429;-67
2023/11/17 01:09:55;;;;;;;;;;;19.80;67.70;;;;;;5003162;28;1353;-66
2023/11/17 01:12:21;;;;;;;;;;;19.80;67.70;;;;;;5003677;28;1318;-66
2023/11/17 01:14:46;;;;;;;;;;;19.80;67.80;;;;;;5000597;28;1922;-66
2023/11/17 01:17:12;;;;;;;;;;;19.80;67.80;;;;;;4999407;28;1461;-66
2023/11/17 01:19:40;;;;;;;;;;;19.80;67.80;;;;;;5003586;28;1431;-67
2023/11/17 01:22:06;;;;;;;;;;;19.80;67.80;;;;;;5001289;28;1732;-66
2023/11/17 01:24:32;;;;;;;;;;;19.80;67.80;;;;;;5001033;28;1336;-67
2023/11/17 01:26:58;;;;;;;;;;;19.80;67.80;;;;;;4999239;28;1276;-67
2023/11/17 01:29:23;;;;;;;;;;;19.80;67.80;;;;;;5017566;28;1260;-67
2023/11/17 01:31:49;;;;;;;;;;;19.80;67.80;;;;;;5000401;28;1064;-66
2023/11/17 01:34:14;;;;;;;;;;;19.80;67.80;;;;;;4999275;28;1973;-66
2023/11/17 01:36:43;;;;;;;;;;;19.80;67.80;;;;;;5003027;28;1254;-66
2023/11/17 01:39:09;;;;;;;;;;;19.80;67.80;;;;;;5003335;28;1264;-66
2023/11/17 01:41:34;;;;;;;;;;;19.80;67.80;;;;;;5000516;28;1114;-66
2023/11/17 01:44:00;;;;;;;;;;;19.80;67.80;;;;;;5002551;28;1319;-66
2023/11/17 01:46:25;;;;;;;;;;;19.80;67.80;;;;;;5003283;28;1212;-67
2023/11/17 01:48:51;;;;;;;;;;;19.80;67.80;;;;;;5005618;28;1395;-67
2023/11/17 01:51:17;;;;;;;;;;;19.80;67.80;;;;;;5002675;28;1118;-67
2023/11/17 01:53:42;;;;;;;;;;;19.80;68.60;;;;;;5000607;28;1902;-67
2023/11/17 01:56:08;;;;;;;;;;;19.80;67.80;;;;;;5000795;28;1433;-69
2023/11/17 01:58:33;;;;;;;;;;;19.80;67.90;;;;;;5014051;28;1425;-67
2023/11/17 02:01:00;;;;;;;;;;;19.80;67.90;;;;;;5000211;28;1485;-67
2023/11/17 02:03:26;;;;;;;;;;;19.80;67.90;;;;;;4997929;28;1409;-66
2023/11/17 02:05:53;;;;;;;;;;;19.80;67.90;;;;;;5001255;28;1501;-68
2023/11/17 02:08:19;;;;;;;;;;;19.80;67.90;;;;;;5001533;28;1374;-67
2023/11/17 02:11:03;;;;;;;;;;;19.80;67.90;;;;;;5002095;28;1857;-67
2023/11/17 02:13:36;;;;;;;;;;;19.70;67.80;;;;;;4999405;28;1903;-67
2023/11/17 02:16:02;;;;;;;;;;;19.80;67.90;;;;;;5004409;28;1237;-66
2023/11/17 02:18:30;;;;;;;;;;;19.80;67.90;;;;;;5001064;28;1841;-66
2023/11/17 02:20:55;;;;;;;;;;;19.80;67.90;;;;;;4982201;28;1491;-67
2023/11/17 02:23:24;;;;;;;;;;;19.80;67.90;;;;;;4998211;28;1474;-67
2023/11/17 02:25:50;;;;;;;;;;;19.70;67.80;;;;;;5003417;28;1418;-66
2023/11/17 02:28:27;;;;;;;;;;;19.70;67.80;;;;;;5000919;28;1367;-67
2023/11/17 02:30:58;;;;;;;;;;;19.70;67.80;;;;;;5003680;28;1475;-66
2023/11/17 02:33:24;;;;;;;;;;;19.80;67.90;;;;;;4998283;28;1935;-67
2023/11/17 02:35:52;;;;;;;;;;;19.70;67.90;;;;;;5017132;28;1430;-67
2023/11/17 02:38:17;;;;;;;;;;;19.70;67.90;;;;;;4998799;28;1573;-67
2023/11/17 02:40:45;;;;;;;;;;;19.70;67.80;;;;;;5001303;28;1331;-67
2023/11/17 02:43:12;;;;;;;;;;;19.70;67.90;;;;;;4999722;28;1574;-66
2023/11/17 02:45:38;;;;;;;;;;;19.70;67.90;;;;;;5001770;28;1428;-67
2023/11/17 02:48:04;;;;;;;;;;;19.80;67.90;;;;;;5000997;28;1518;-67
2023/11/17 02:50:38;;;;;;;;;;;19.70;67.90;;;;;;5006426;28;1723;-67
2023/11/17 02:53:17;;;;;;;;;;;19.70;67.90;;;;;;5002591;28;1907;-67
2023/11/17 02:55:42;;;;;;;;;;;19.70;67.90;;;;;;5002779;28;1233;-67
2023/11/17 02:58:08;;;;;;;;;;;19.70;67.90;;;;;;4999326;28;1545;-67
2023/11/17 03:00:33;;;;;;;;;;;19.70;67.90;;;;;;5000437;28;1489;-67
2023/11/17 03:02:59;;;;;;;;;;;19.70;67.90;;;;;;4999518;28;1411;-67
2023/11/17 03:05:27;;;;;;;;;;;19.70;67.90;;;;;;4998639;28;1448;-67
2023/11/17 03:07:53;;;;;;;;;;;19.80;68.00;;;;;;4999717;28;1354;-66
2023/11/17 03:10:18;;;;;;;;;;;19.70;67.90;;;;;;5003855;28;1450;-68
2023/11/17 03:12:44;;;;;;;;;;;19.70;67.90;;;;;;5006730;28;1439;-68
2023/11/17 03:15:09;;;;;;;;;;;19.70;67.90;;;;;;5003773;28;1969;-67
2023/11/17 03:17:41;;;;;;;;;;;19.80;68.00;;;;;;5006005;28;1501;-67
2023/11/17 03:20:07;;;;;;;;;;;19.70;67.90;;;;;;5006299;28;1332;-66
2023/11/17 03:22:32;;;;;;;;;;;19.70;67.90;;;;;;5005511;28;1856;-67
2023/11/17 03:24:58;;;;;;;;;;;19.70;67.90;;;;;;5005515;28;1507;-66
2023/11/17 03:27:23;;;;;;;;;;;19.70;67.90;;;;;;5007077;28;1322;-67
2023/11/17 03:29:49;;;;;;;;;;;19.70;67.90;;;;;;5008125;28;1314;-68
2023/11/17 03:32:16;;;;;;;;;;;19.70;67.90;;;;;;5001976;28;1119;-67
2023/11/17 03:34:42;;;;;;;;;;;19.80;68.00;;;;;;5005405;28;1969;-67
2023/11/17 03:37:07;;;;;;;;;;;19.70;67.90;;;;;;5001969;28;1309;-67
2023/11/17 03:39:41;;;;;;;;;;;19.70;67.90;;;;;;5005971;28;2482;-66
2023/11/17 03:42:13;;;;;;;;;;;19.70;67.90;;;;;;5001506;28;1379;-66
2023/11/17 03:44:38;;;;;;;;;;;19.70;67.90;;;;;;5003675;28;1397;-67
2023/11/17 03:47:06;;;;;;;;;;;19.70;67.90;;;;;;5007178;28;1687;-67
2023/11/17 03:49:32;;;;;;;;;;;19.70;67.90;;;;;;5002758;28;1835;-68
2023/11/17 03:51:57;;;;;;;;;;;19.70;67.90;;;;;;5003243;28;1448;-67
2023/11/17 03:54:23;;;;;;;;;;;19.70;67.90;;;;;;5001362;28;1977;-67
2023/11/17 03:56:49;;;;;;;;;;;19.70;67.90;;;;;;5008549;28;1457;-68
2023/11/17 03:59:15;;;;;;;;;;;19.70;67.90;;;;;;5005077;28;1502;-67
2023/11/17 04:01:41;;;;;;;;;;;19.70;67.90;;;;;;5005700;28;955;-67
2023/11/17 04:04:06;;;;;;;;;;;19.70;67.90;;;;;;5020347;28;1248;-68
2023/11/17 04:06:32;;;;;;;;;;;19.70;67.90;;;;;;5005301;28;1031;-67
2023/11/17 04:08:57;;;;;;;;;;;19.70;67.90;;;;;;5004035;28;1204;-67
2023/11/17 04:11:23;;;;;;;;;;;19.70;67.90;;;;;;5009330;28;1401;-67
2023/11/17 04:13:49;;;;;;;;;;;19.80;68.00;;;;;;5001507;28;1910;-67
2023/11/17 04:16:15;;;;;;;;;;;19.70;67.90;;;;;;5008102;28;1485;-67
2023/11/17 04:18:41;;;;;;;;;;;19.70;67.90;;;;;;5003378;28;1702;-67
2023/11/17 04:21:06;;;;;;;;;;;19.70;68.00;;;;;;4998331;28;1504;-67
2023/11/17 04:23:33;;;;;;;;;;;19.70;68.00;;;;;;5002840;28;1822;-67
2023/11/17 04:25:59;;;;;;;;;;;19.70;67.90;;;;;;5006701;28;1247;-67
2023/11/17 04:28:24;;;;;;;;;;;19.70;67.90;;;;;;4999969;28;1643;-67
2023/11/17 04:30:50;;;;;;;;;;;19.70;68.00;;;;;;5003946;28;1479;-67
2023/11/17 04:33:15;;;;;;;;;;;19.70;67.90;;;;;;5002509;28;1962;-67
2023/11/17 04:35:40;;;;;;;;;;;19.70;68.00;;;;;;5002068;28;1450;-67
2023/11/17 04:38:06;;;;;;;;;;;19.70;67.90;;;;;;5002982;28;1457;-67
2023/11/17 04:40:33;;;;;;;;;;;19.70;68.00;;;;;;5018082;28;1532;-67
2023/11/17 04:43:00;;;;;;;;;;;19.70;68.00;;;;;;5003101;28;1617;-67
2023/11/17 04:45:26;;;;;;;;;;;19.70;68.00;;;;;;5004428;28;1435;-67
2023/11/17 04:47:51;;;;;;;;;;;19.70;68.00;;;;;;5002458;28;1495;-68
2023/11/17 04:50:17;;;;;;;;;;;19.70;68.00;;;;;;5005256;28;1424;-67
2023/11/17 04:52:43;;;;;;;;;;;19.70;68.00;;;;;;5000625;28;1268;-67
2023/11/17 04:55:12;;;;;;;;;;;19.70;68.00;;;;;;5002279;28;1888;-68
2023/11/17 04:57:38;;;;;;;;;;;19.70;68.00;;;;;;4997697;28;1495;-66
2023/11/17 05:00:04;;;;;;;;;;;19.70;68.00;;;;;;5004360;28;1403;-67
2023/11/17 05:02:32;;;;;;;;;;;19.70;68.00;;;;;;4998435;28;1336;-68
2023/11/17 05:04:58;;;;;;;;;;;19.70;68.00;;;;;;5001909;28;1335;-67
2023/11/17 05:07:24;;;;;;;;;;;19.70;68.00;;;;;;5000894;28;1548;-67
2023/11/17 05:09:50;;;;;;;;;;;19.70;68.00;;;;;;5002573;28;1076;-66
2023/11/17 05:12:15;;;;;;;;;;;19.70;68.00;;;;;;5002221;28;1294;-68
2023/11/17 05:14:41;;;;;;;;;;;19.70;68.00;;;;;;5003907;28;1902;-67
2023/11/17 05:17:09;;;;;;;;;;;19.70;68.00;;;;;;5003194;28;1257;-67
2023/11/17 05:19:37;;;;;;;;;;;19.80;67.90;;;;;;5003768;28;1347;-67
2023/11/17 05:22:03;;;;;;;;;;;19.80;67.80;;;;;;5001364;28;1504;-66
2023/11/17 05:24:29;;;;;;;;;;;19.80;67.70;;;;;;5001816;28;1339;-67
2023/11/17 05:26:54;;;;;;;;;;;19.80;67.70;;;;;;5004289;28;1452;-68
2023/11/17 05:29:20;;;;;;;;;;;19.80;67.50;;;;;;5002058;28;1237;-68
2023/11/17 05:31:45;;;;;;;;;;;19.80;67.50;;;;;;5004210;28;1361;-67
2023/11/17 05:34:13;;;;;;;;;;;19.90;67.40;;;;;;5003596;28;1914;-67
2023/11/17 05:36:39;;;;;;;;;;;19.90;67.30;;;;;;5002357;28;1231;-67
2023/11/17 05:39:05;;;;;;;;;;;19.90;67.20;;;;;;5000292;28;1480;-70
2023/11/17 05:41:31;;;;;;;;;;;19.90;67.20;;;;;;4996920;28;1985;-69
2023/11/17 05:43:57;;;;;;;;;;;20.00;67.20;;;;;;5000416;28;1344;-67
2023/11/17 05:46:23;;;;;;;;;;;19.90;67.00;;;;;;5000847;28;1594;-68
2023/11/17 05:48:50;;;;;;;;;;;20.00;67.00;;;;;;5001698;28;1396;-69
2023/11/17 05:51:16;;;;;;;;;;;20.00;67.00;;;;;;5001470;28;1317;-69
2023/11/17 05:53:43;;;;;;;;;;;20.00;66.90;;;;;;4999177;28;1914;-69
2023/11/17 05:56:11;;;;;;;;;;;20.00;66.90;;;;;;5004576;28;1527;-69
2023/11/17 05:58:36;;;;;;;;;;;20.00;66.80;;;;;;4995979;28;1494;-70
2023/11/17 06:01:02;;;;;;;;;;;20.10;66.80;;;;;;5001993;28;1567;-70
2023/11/17 06:03:29;;;;;;;;;;;20.00;66.70;;;;;;5004513;28;1616;-69
2023/11/17 06:05:55;;;;;;;;;;;20.10;66.80;;;;;;5002162;28;1448;-67
2023/11/17 06:08:21;;;;;;;;;;;20.10;66.70;;;;;;5003031;28;1332;-69
2023/11/17 06:10:46;;;;;;;;;;;20.10;66.70;;;;;;5000460;28;1297;-68
2023/11/17 06:13:14;;;;;;;;;;;20.10;66.60;;;;;;5000630;28;1971;-68
2023/11/17 06:15:39;;;;;;;;;;;20.10;66.60;;;;;;5002188;28;1410;-65
2023/11/17 06:18:07;;;;;;;;;;;20.10;66.50;;;;;;5000249;28;1122;-66
2023/11/17 06:20:33;;;;;;;;;;;20.10;66.50;;;;;;4996953;28;1502;-66
2023/11/17 06:22:59;;;;;;;;;;;20.10;66.50;;;;;;5002488;28;1372;-67
2023/11/17 06:25:25;;;;;;;;;;;20.10;66.50;;;;;;5001251;28;1585;-66
2023/11/17 06:27:51;;;;;;;;;;;20.10;66.40;;;;;;4997472;28;1443;-66
2023/11/17 06:30:17;;;;;;;;;;;20.10;66.40;;;;;;5000525;28;1043;-70
2023/11/17 06:32:42;;;;;;;;;;;20.10;66.40;;;;;;5005543;28;1288;-68
2023/11/17 06:35:09;;;;;;;;;;;20.20;66.40;;;;;;5005097;28;1973;-68
2023/11/17 06:37:34;;;;;;;;;;;20.10;66.30;;;;;;5006017;28;875;-68
2023/11/17 06:40:00;;;;;;;;;;;20.10;66.30;;;;;;4994278;28;809;-67
2023/11/17 06:42:27;;;;;;;;;;;20.20;66.30;;;;;;5003100;28;1240;-71
2023/11/17 06:44:52;;;;;;;;;;;20.20;66.30;;;;;;5004813;28;1065;-68
2023/11/17 06:47:18;;;;;;;;;;;20.20;64.20;;;;;;5006579;28;1137;-68
2023/11/17 06:49:43;;;;;;;;;;;20.20;61.20;;;;;;5010363;28;1299;-68
2023/11/17 06:52:09;;;;;;;;;;;20.20;61.50;;;;;;5005513;28;1133;-68
2023/11/17 06:54:35;;;;;;;;;;;20.10;61.80;;;;;;5004537;28;1959;-70
2023/11/17 06:57:00;;;;;;;;;;;20.10;61.80;;;;;;5006664;28;906;-66
2023/11/17 06:59:26;;;;;;;;;;;20.20;62.00;;;;;;5004515;28;1078;-67
2023/11/17 07:01:51;;;;;;;;;;;20.20;62.50;;;;;;5005679;28;1297;-66
2023/11/17 07:04:17;;;;;;;;;;;20.10;62.50;;;;;;5003406;28;1343;-65
2023/11/17 07:06:43;;;;;;;;;;;20.10;62.80;;;;;;5005373;28;1281;-65
2023/11/17 07:09:19;;;;;;;;;;;20.10;63.20;;;;;;5002119;28;1385;-67
2023/11/17 07:11:45;;;;;;;;;;;20.10;63.50;;;;;;5003858;28;1663;-66
2023/11/17 07:14:11;;;;;;;;;;;20.10;63.80;;;;;;5005234;28;1969;-69
2023/11/17 07:16:38;;;;;;;;;;;20.10;64.00;;;;;;4993948;28;1354;-66
2023/11/17 07:19:08;;;;;;;;;;;20.10;64.20;;;;;;5004614;28;1254;-67
2023/11/17 07:21:36;;;;;;;;;;;20.10;64.40;;;;;;5004027;28;1442;-68
2023/11/17 07:24:05;;;;;;;;;;;20.10;64.50;;;;;;5009893;28;1323;-68
2023/11/17 07:26:34;;;;;;;;;;;20.10;64.60;;;;;;5004738;28;1334;-68
2023/11/17 07:29:00;;;;;;;;;;;20.10;64.70;;;;;;5002642;28;1317;-68
2023/11/17 07:31:27;;;;;;;;;;;20.10;64.70;;;;;;5008127;28;1274;-69
2023/11/17 07:33:56;;;;;;;;;;;20.10;64.80;;;;;;5004833;28;2250;-67
2023/11/17 07:36:22;;;;;;;;;;;20.10;64.80;;;;;;5003928;28;1296;-66
2023/11/17 07:38:51;;;;;;;;;;;20.10;64.90;;;;;;5004985;28;1229;-67
2023/11/17 07:41:25;;;;;;;;;;;20.10;64.90;;;;;;5001971;28;1341;-67
2023/11/17 07:43:51;;;;;;;;;;;20.10;64.90;;;;;;5003708;28;1296;-69
2023/11/17 07:46:16;;;;;;;;;;;20.10;65.00;;;;;;5003978;28;1377;-68
2023/11/17 07:48:43;;;;;;;;;;;20.10;65.00;;;;;;5019925;28;1546;-68
2023/11/17 07:51:09;;;;;;;;;;;20.10;65.10;;;;;;5009033;28;1533;-68
2023/11/17 07:53:34;;;;;;;;;;;20.10;65.00;;;;;;5002728;28;1910;-67
2023/11/17 07:56:00;;;;;;;;;;;20.10;65.10;;;;;;5001902;28;1546;-68
2023/11/17 07:58:26;;;;;;;;;;;20.10;65.00;;;;;;5001456;28;1359;-68
2023/11/17 08:00:52;;;;;;;;;;;20.10;65.00;;;;;;5006336;28;1262;-68
2023/11/17 08:03:19;;;;;;;;;;;20.10;65.10;;;;;;5003122;28;1334;-68
2023/11/17 08:05:45;;;;;;;;;;;20.20;65.10;;;;;;5003618;28;1536;-68
2023/11/17 08:08:11;;;;;;;;;;;20.20;65.10;;;;;;5003986;28;1441;-68
2023/11/17 08:10:36;;;;;;;;;;;20.20;65.10;;;;;;5006087;28;1712;-68
2023/11/17 08:13:03;;;;;;;;;;;20.20;65.10;;;;;;5004696;28;1938;-68
2023/11/17 08:15:29;;;;;;;;;;;20.20;65.10;;;;;;5002390;28;1155;-68
2023/11/17 08:17:55;;;;;;;;;;;20.20;65.20;;;;;;5001732;28;1460;-68
2023/11/17 08:20:22;;;;;;;;;;;20.10;65.10;;;;;;5005054;28;1140;-69
2023/11/17 08:22:48;;;;;;;;;;;20.20;65.20;;;;;;5004072;28;1429;-68
2023/11/17 08:25:17;;;;;;;;;;;20.20;65.20;;;;;;5006794;28;1455;-68
2023/11/17 08:27:42;;;;;;;;;;;20.20;65.10;;;;;;5003090;28;1752;-69
2023/11/17 08:30:08;;;;;;;;;;;20.20;65.20;;;;;;5006337;28;1514;-68
2023/11/17 08:32:37;;;;;;;;;;;20.20;65.20;;;;;;5001850;28;1605;-68
2023/11/17 08:35:03;;;;;;;;;;;20.20;65.20;;;;;;5005969;28;1906;-68
2023/11/17 08:37:32;;;;;;;;;;;20.20;65.20;;;;;;4998221;28;1385;-68
2023/11/17 08:40:00;;;;;;;;;;;20.20;65.30;;;;;;5003114;28;1354;-68
2023/11/17 08:42:26;;;;;;;;;;;20.10;65.20;;;;;;5003697;28;1380;-68
2023/11/17 08:44:52;;;;;;;;;;;20.10;65.30;;;;;;5002611;28;1168;-68
2023/11/17 08:47:17;;;;;;;;;;;20.10;65.40;;;;;;5004088;28;1193;-68
2023/11/17 08:49:43;;;;;;;;;;;20.10;65.40;;;;;;5001050;28;1356;-69
2023/11/17 08:52:08;;;;;;;;;;;20.10;65.50;;;;;;5003307;28;1437;-69
2023/11/17 08:54:34;;;;;;;;;;;20.10;65.50;;;;;;5004270;28;1910;-69
2023/11/17 08:57:00;;;;;;;;;;;20.10;65.60;;;;;;5005544;28;1463;-69
2023/11/17 08:59:25;;;;;;;;;;;20.10;65.60;;;;;;5000787;28;1547;-69
2023/11/17 09:01:52;;;;;;;;;;;20.10;65.60;;;;;;5001720;28;1400;-69
2023/11/17 09:04:17;;;;;;;;;;;20.10;65.70;;;;;;5005921;28;1459;-69
2023/11/17 09:06:43;;;;;;;;;;;20.00;65.70;;;;;;5007166;28;1526;-69
2023/11/17 09:09:12;;;;;;;;;;;20.00;65.70;;;;;;5001434;28;1280;-69
2023/11/17 09:11:38;;;;;;;;;;;20.10;65.80;;;;;;5004210;28;1638;-69
2023/11/17 09:14:06;;;;;;;;;;;20.00;65.70;;;;;;5003662;28;1906;-69
2023/11/17 09:16:35;;;;;;;;;;;20.00;65.70;;;;;;5002617;28;1439;-69
2023/11/17 09:19:01;;;;;;;;;;;20.00;65.80;;;;;;5006489;28;1461;-69
2023/11/17 09:21:27;;;;;;;;;;;20.00;65.70;;;;;;5004000;28;1353;-69
2023/11/17 09:23:52;;;;;;;;;;;20.10;65.80;;;;;;4997885;28;1413;-69
2023/11/17 09:26:19;;;;;;;;;;;20.00;65.80;;;;;;5004881;28;1214;-69
2023/11/17 09:28:44;;;;;;;;;;;20.00;65.70;;;;;;4999969;28;1336;-69
2023/11/17 09:31:12;;;;;;;;;;;20.10;65.80;;;;;;5003024;28;1457;-69
2023/11/17 09:33:37;;;;;;;;;;;20.10;65.80;;;;;;5002031;28;1914;-69
2023/11/17 09:36:03;;;;;;;;;;;20.10;65.80;;;;;;5004316;28;1259;-69
2023/11/17 09:38:29;;;;;;;;;;;20.10;65.80;;;;;;4998870;28;1321;-69
2023/11/17 09:40:54;;;;;;;;;;;20.10;65.80;;;;;;5003699;28;1560;-69
2023/11/17 09:43:20;;;;;;;;;;;20.10;65.80;;;;;;4997824;28;1351;-69
2023/11/17 09:45:46;;;;;;;;;;;20.10;65.70;;;;;;5002436;28;1187;-69
2023/11/17 09:48:12;;;;;;;;;;;20.10;65.70;;;;;;5001084;28;905;-69
2023/11/17 09:50:40;;;;;;;;;;;20.10;65.70;;;;;;5000593;28;1054;-69
2023/11/17 09:53:06;;;;;;;;;;;20.10;65.70;;;;;;4999248;28;1910;-69
2023/11/17 09:55:36;;;;;;;;;;;20.10;65.70;;;;;;4996709;28;1284;-69
2023/11/17 09:58:02;;;;;;;;;;;20.00;65.60;;;;;;5000147;28;1486;-69
2023/11/17 10:00:27;;;;;;;;;;;20.10;65.70;;;;;;5000855;28;1471;-70
2023/11/17 10:02:57;;;;;;;;;;;20.10;65.80;;;;;;5000186;28;1625;-68
2023/11/17 10:05:23;;;;;;;;;;;20.10;65.80;;;;;;4995888;28;1549;-69
2023/11/17 10:07:49;;;;;;;;;;;20.00;65.80;;;;;;5020165;28;1563;-70
2023/11/17 10:10:16;;;;;;;;;;;20.10;65.80;;;;;;5001653;28;1505;-68
2023/11/17 10:12:44;;;;;;;;;;;20.10;65.90;;;;;;5001199;28;1571;-68
2023/11/17 10:15:12;;;;;;;;;;;20.00;65.90;;;;;;4999229;28;1894;-69
2023/11/17 10:17:39;;;;;;;;;;;20.00;65.90;;;;;;5000685;28;1918;-69
2023/11/17 10:20:04;;;;;;;;;;;20.00;65.90;;;;;;4999626;28;1538;-70
2023/11/17 10:22:30;;;;;;;;;;;20.00;66.00;;;;;;5002915;28;1269;-68
2023/11/17 10:24:57;;;;;;;;;;;20.00;66.00;;;;;;4998525;28;1518;-67
2023/11/17 10:27:23;;;;;;;;;;;20.00;66.00;;;;;;5002904;28;1412;-69
2023/11/17 10:29:48;;;;;;;;;;;20.00;66.00;;;;;;4988514;28;1347;-68
2023/11/17 10:32:14;;;;;;;;;;;20.10;66.00;;;;;;5000097;28;1442;-70
2023/11/17 10:34:41;;;;;;;;;;;20.00;66.00;;;;;;4999753;28;1902;-68
2023/11/17 10:37:09;;;;;;;;;;;20.00;65.90;;;;;;5001820;28;1455;-70
2023/11/17 10:39:50;;;;;;;;;;;20.00;65.90;;;;;;4998521;28;1369;-70
2023/11/17 10:42:15;;;;;;;;;;;20.10;66.00;;;;;;5004214;28;1574;-69
2023/11/17 10:44:41;;;;;;;;;;;20.00;65.90;;;;;;4999200;28;1763;-71
2023/11/17 10:47:07;;;;;;;;;;;20.00;65.90;;;;;;5000904;28;1365;-71
2023/11/17 10:49:33;;;;;;;;;;;20.10;66.00;;;;;;4995681;28;1441;-69
2023/11/17 10:51:59;;;;;;;;;;;20.00;65.80;;;;;;4999452;28;1476;-70
2023/11/17 10:54:24;;;;;;;;;;;20.10;65.90;;;;;;5000721;28;1964;-70
2023/11/17 10:56:51;;;;;;;;;;;20.10;65.90;;;;;;4997982;28;1370;-69
2023/11/17 10:59:18;;;;;;;;;;;20.10;65.80;;;;;;5001437;28;1377;-69
2023/11/17 11:01:47;;;;;;;;;;;20.10;65.90;;;;;;4999981;28;997;-69
2023/11/17 11:04:17;;;;;;;;;;;20.10;65.80;;;;;;5004578;28;1539;-69
2023/11/17 11:06:42;;;;;;;;;;;20.10;65.80;;;;;;5000306;28;1451;-69
2023/11/17 11:09:08;;;;;;;;;;;20.10;65.80;;;;;;4999253;28;2410;-68
2023/11/17 11:11:34;;;;;;;;;;;20.10;65.80;;;;;;5015700;28;1410;-70
2023/11/17 11:14:03;;;;;;;;;;;20.10;65.80;;;;;;5006238;28;1902;-70
2023/11/17 11:16:35;;;;;;;;;;;20.10;65.80;;;;;;5003215;28;1336;-69
2023/11/17 11:19:01;;;;;;;;;;;20.10;65.70;;;;;;5001547;28;1351;-66
2023/11/17 11:21:35;;;;;;;;;;;20.10;65.70;;;;;;5015091;28;1417;-70
2023/11/17 11:24:01;;;;;;;;;;;20.10;65.70;;;;;;4998311;28;1425;-68
2023/11/17 11:26:27;;;;;;;;;;;20.10;65.70;;;;;;5001445;28;1392;-68
2023/11/17 11:28:53;;;;;;;;;;;20.10;65.70;;;;;;4997912;28;1309;-68
2023/11/17 11:31:19;;;;;;;;;;;20.20;66.00;;;;;;5005798;28;1478;-66
2023/11/17 11:33:45;;;;;;;;;;;20.20;66.10;;;;;;4997061;28;1995;-68
2023/11/17 11:36:11;;;;;;;;;;;20.20;66.70;;;;;;5007104;28;1264;-69
2023/11/17 11:38:37;;;;;;;;;;;20.20;65.90;;;;;;5003969;28;1441;-69
2023/11/17 11:41:03;;;;;;;;;;;20.20;65.80;;;;;;5004689;28;1433;-68
2023/11/17 11:43:30;;;;;;;;;;;20.20;65.90;;;;;;5006454;28;1283;-68
2023/11/17 11:45:55;;;;;;;;;;;20.10;65.90;;;;;;5003102;28;1463;-69
2023/11/17 11:48:22;;;;;;;;;;;20.20;66.00;;;;;;5004325;28;1279;-68
2023/11/17 11:50:49;;;;;;;;;;;20.10;66.00;;;;;;5001780;28;1488;-69
2023/11/17 11:53:35;;;;;;;;;;;20.10;66.00;;;;;;4981194;28;2112;-68
2023/11/17 11:56:11;;;;;;;;;;;20.10;66.00;;;;;;4996212;28;1449;-66
2023/11/17 11:58:40;;;;;;;;;;;20.10;66.10;;;;;;5001191;28;1329;-67
2023/11/17 12:01:06;;;;;;;;;;;20.10;66.10;;;;;;5008498;28;1442;-68
2023/11/17 12:03:35;;;;;;;;;;;20.10;66.10;;;;;;5004700;28;1401;-67
2023/11/17 12:06:01;;;;;;;;;;;20.10;66.10;;;;;;5003910;28;1619;-66
2023/11/17 12:08:31;;;;;;;;;;;20.10;66.20;;;;;;5002582;28;1475;-66
2023/11/17 12:10:57;;;;;;;;;;;20.10;66.20;;;;;;5003623;28;1450;-67
2023/11/17 12:13:38;;;;;;;;;;;20.10;66.20;;;;;;5004111;28;1914;-66
2023/11/17 12:16:06;;;;;;;;;;;20.00;66.20;;;;;;5001913;28;1298;-67
2023/11/17 12:18:32;;;;;;;;;;;20.00;66.30;;;;;;5007609;28;1582;-68
2023/11/17 12:21:19;;;;;;;;;;;20.00;66.20;;;;;;5006558;28;1297;-68
2023/11/17 12:23:48;;;;;;;;;;;20.00;66.20;;;;;;5015666;28;1516;-67
2023/11/17 12:26:14;;;;;;;;;;;20.00;66.30;;;;;;5002739;28;1221;-67
2023/11/17 12:28:40;;;;;;;;;;;20.00;66.30;;;;;;5004120;28;1518;-67
2023/11/17 12:31:08;;;;;;;;;;;20.00;66.30;;;;;;5006667;28;1041;-67
2023/11/17 12:33:34;;;;;;;;;;;20.00;66.30;;;;;;5001983;28;1926;-67
2023/11/17 12:35:59;;;;;;;;;;;20.00;66.30;;;;;;5003841;28;1470;-68
2023/11/17 12:38:27;;;;;;;;;;;20.00;66.30;;;;;;5003820;28;1003;-68
2023/11/17 12:40:58;;;;;;;;;;;20.00;66.30;;;;;;4999794;28;1563;-67
2023/11/17 12:43:24;;;;;;;;;;;20.00;66.30;;;;;;5004706;28;1515;-67
2023/11/17 12:45:50;;;;;;;;;;;20.00;66.30;;;;;;5005179;28;1327;-68
2023/11/17 12:48:17;;;;;;;;;;;20.00;66.20;;;;;;5000090;28;1489;-68
2023/11/17 12:50:42;;;;;;;;;;;20.00;66.20;;;;;;4995385;28;1622;-67
2023/11/17 12:53:08;;;;;;;;;;;20.00;66.20;;;;;;4999526;28;1395;-67
2023/11/17 12:55:45;;;;;;;;;;;20.00;66.20;;;;;;5001267;28;1972;-68
2023/11/17 12:58:12;;;;;;;;;;;20.00;66.20;;;;;;5002350;28;1325;-68
2023/11/17 13:00:37;;;;;;;;;;;20.00;66.20;;;;;;5003413;28;1283;-68
2023/11/17 13:03:03;;;;;;;;;;;20.00;66.10;;;;;;5001456;28;1379;-68
2023/11/17 13:05:28;;;;;;;;;;;20.00;66.10;;;;;;4997503;28;1596;-68
2023/11/17 13:07:54;;;;;;;;;;;20.00;66.10;;;;;;5001654;28;1505;-68
2023/11/17 13:10:19;;;;;;;;;;;20.00;66.10;;;;;;5000636;28;1404;-68
2023/11/17 13:12:47;;;;;;;;;;;20.00;66.10;;;;;;5000410;28;1579;-67
2023/11/17 13:15:14;;;;;;;;;;;20.00;66.10;;;;;;5005690;28;1926;-69
2023/11/17 13:17:40;;;;;;;;;;;20.00;66.10;;;;;;5002063;28;1473;-68
2023/11/17 13:20:12;;;;;;;;;;;20.00;66.10;;;;;;5003683;28;1223;-68
2023/11/17 13:22:37;;;;;;;;;;;20.00;66.10;;;;;;5016049;28;1347;-67
2023/11/17 13:25:06;;;;;;;;;;;20.00;66.10;;;;;;5001053;28;1581;-67
2023/11/17 13:27:36;;;;;;;;;;;20.00;66.10;;;;;;4999059;28;1381;-68
2023/11/17 13:30:01;;;;;;;;;;;20.00;66.10;;;;;;5001322;28;1376;-68
2023/11/17 13:32:27;;;;;;;;;;;20.00;66.20;;;;;;5000602;28;1280;-68
2023/11/17 13:34:53;;;;;;;;;;;20.00;66.20;;;;;;5005790;28;1963;-68
2023/11/17 13:37:18;;;;;;;;;;;20.00;66.20;;;;;;4990066;28;1494;-68
2023/11/17 13:39:45;;;;;;;;;;;20.00;66.30;;;;;;5000358;28;1585;-68
2023/11/17 13:42:15;;;;;;;;;;;20.00;66.30;;;;;;5001308;28;1384;-68
2023/11/17 13:44:41;;;;;;;;;;;20.00;66.40;;;;;;4997940;28;1522;-68
2023/11/17 13:47:08;;;;;;;;;;;20.00;66.30;;;;;;4996592;28;1738;-68
2023/11/17 13:49:37;;;;;;;;;;;20.00;66.30;;;;;;5001880;28;1408;-67
2023/11/17 13:52:04;;;;;;;;;;;20.00;66.40;;;;;;4998771;28;1370;-67
2023/11/17 13:54:30;;;;;;;;;;;20.00;66.40;;;;;;4992026;28;1972;-69
2023/11/17 13:56:55;;;;;;;;;;;20.00;66.40;;;;;;4999357;28;1796;-68
2023/11/17 13:59:23;;;;;;;;;;;20.00;66.40;;;;;;5019266;28;1631;-68
2023/11/17 14:01:57;;;;;;;;;;;20.00;66.40;;;;;;5003609;28;1410;-68
2023/11/17 14:04:29;;;;;;;;;;;20.00;66.40;;;;;;4999805;28;1411;-69
2023/11/17 14:07:05;;;;;;;;;;;20.00;66.40;;;;;;4998832;28;1359;-68
2023/11/17 14:09:31;;;;;;;;;;;20.00;66.40;;;;;;5003720;28;1625;-68
2023/11/17 14:11:57;;;;;;;;;;;20.00;66.40;;;;;;5017421;28;1440;-68
2023/11/17 14:14:24;;;;;;;;;;;20.00;66.30;;;;;;5004458;28;1981;-71
2023/11/17 14:16:50;;;;;;;;;;;20.00;66.30;;;;;;5013719;28;1454;-70
2023/11/17 14:19:15;;;;;;;;;;;20.00;66.30;;;;;;5003397;28;1371;-69
2023/11/17 14:21:44;;;;;;;;;;;20.00;66.30;;;;;;5017176;28;1377;-69
2023/11/17 14:24:17;;;;;;;;;;;20.00;66.30;;;;;;5002252;28;1455;-68
2023/11/17 14:26:45;;;;;;;;;;;20.00;66.30;;;;;;4996750;28;1592;-68
2023/11/17 14:29:13;;;;;;;;;;;20.00;66.30;;;;;;5004049;28;1272;-68